KLWV/LWV METAR and TAF weather

Enter ICAO airport designator
Station Type Date Time Source
KLWV METAR 2019/08/19 00:53 UTC NOAA

KLWV 190053Z AUTO 29004KT 10SM CLR 23/19 A2992 RMK AO2 SLP127 T02330189


Station Type Date Time Source
KLWV Decoded METAR 2019/08/19 00:53 UTC NOAA

Station name not available
Aug 18, 2019 - 08:53 PM EDT / 2019.08.19 0053 UTC
Wind: from the WNW (290 degrees) at 5 MPH (4 KT):0
Visibility: 10 mile(s):0
Sky conditions: clear
Temperature: 73.9 F (23.3 C)
Dew Point: 66.0 F (18.9 C)
Relative Humidity: 76%
Pressure (altimeter): 29.92 in. Hg (1013 hPa)
ob: KLWV 190053Z AUTO 29004KT 10SM CLR 23/19 A2992 RMK AO2 SLP127 T02330189
cycle: 1

Station Type Date Time Source
KLWV TAF UTC NOAA

Error!

Example: see airport list